Time;durP1;ratioP1;P1;durP2;ratioP2;P2;SDS_P1;SDS_P2;PMS_P1;PMS_P2;Temp;Humidity;BMP_temperature;BMP_pressure;BME280_temperature;BME280_humidity;BME280_pressure;Samples;Min_cycle;Max_cycle;Signal;HPM_P1;HPM_P2
2022/09/21 00:00:50;;;;;;;3.23;2.80;;;;;;;;;;4994450;28;20654;-74
2022/09/21 00:03:16;;;;;;;3.30;2.60;;;;;;;;;;4980047;28;20216;-73
2022/09/21 00:05:41;;;;;;;3.30;2.63;;;;;;;;;;4996873;28;20247;-73
2022/09/21 00:08:07;;;;;;;5.73;2.70;;;;;;;;;;4995541;28;20220;-73
2022/09/21 00:10:33;;;;;;;4.50;2.70;;;;;;;;;;4993969;28;20228;-73
2022/09/21 00:13:03;;;;;;;3.93;3.00;;;;;;;;;;4979339;28;20224;-73
2022/09/21 00:15:29;;;;;;;3.60;2.80;;;;;;;;;;4938421;28;20231;-74
2022/09/21 00:18:02;;;;;;;2.73;2.53;;;;;;;;;;4997023;28;20213;-73
2022/09/21 00:20:30;;;;;;;2.87;2.60;;;;;;;;;;4994529;28;20711;-73
2022/09/21 00:22:58;;;;;;;4.57;2.30;;;;;;;;;;4992504;28;20213;-73
2022/09/21 00:25:23;;;;;;;5.70;2.60;;;;;;;;;;4995678;28;20623;-73
2022/09/21 00:27:53;;;;;;;2.57;2.37;;;;;;;;;;5007223;28;20276;-74
2022/09/21 00:30:19;;;;;;;5.30;2.37;;;;;;;;;;4980402;28;20224;-74
2022/09/21 00:32:46;;;;;;;5.57;3.00;;;;;;;;;;4977709;28;20293;-74
2022/09/21 00:35:15;;;;;;;2.90;2.57;;;;;;;;;;5008365;28;20236;-74
2022/09/21 00:37:40;;;;;;;2.90;2.60;;;;;;;;;;4981447;28;20271;-75
2022/09/21 00:40:06;;;;;;;3.27;2.57;;;;;;;;;;4994573;28;20229;-73
2022/09/21 00:42:37;;;;;;;2.80;2.60;;;;;;;;;;5012970;28;20271;-74
2022/09/21 00:45:03;;;;;;;3.50;2.70;;;;;;;;;;4997772;28;20224;-73
2022/09/21 00:47:41;;;;;;;4.50;2.63;;;;;;;;;;4961144;28;20220;-73
2022/09/21 00:50:12;;;;;;;3.70;2.73;;;;;;;;;;4979751;28;20243;-73
2022/09/21 00:52:51;;;;;;;3.10;2.80;;;;;;;;;;4995318;28;20233;-73
2022/09/21 00:55:25;;;;;;;2.60;2.40;;;;;;;;;;4996454;28;20706;-74
2022/09/21 00:57:59;;;;;;;2.77;2.43;;;;;;;;;;5010342;28;20228;-73
2022/09/21 01:00:24;;;;;;;4.63;2.20;;;;;;;;;;4992519;28;20248;-73
2022/09/21 01:02:50;;;;;;;4.60;2.33;;;;;;;;;;4996967;28;20251;-73
2022/09/21 01:05:15;;;;;;;4.50;2.40;;;;;;;;;;4962523;28;20286;-73
2022/09/21 01:07:44;;;;;;;6.37;2.63;;;;;;;;;;4977919;28;20224;-74
2022/09/21 01:10:11;;;;;;;3.50;2.40;;;;;;;;;;4974912;28;20224;-73
2022/09/21 01:12:55;;;;;;;4.37;2.13;;;;;;;;;;4978612;28;20300;-73
2022/09/21 01:15:44;;;;;;;2.17;1.97;;;;;;;;;;5009673;28;20244;-74
2022/09/21 01:18:16;;;;;;;2.40;2.20;;;;;;;;;;4978681;28;20229;-74
2022/09/21 01:20:59;;;;;;;2.70;2.50;;;;;;;;;;4987508;28;20261;-74
2022/09/21 01:23:40;;;;;;;3.47;2.27;;;;;;;;;;4993324;28;20308;-73
2022/09/21 01:26:45;;;;;;;3.60;2.40;;;;;;;;;;4997362;28;20248;-73
2022/09/21 01:29:38;;;;;;;2.67;2.33;;;;;;;;;;4992470;28;20282;-73
2022/09/21 01:32:15;;;;;;;3.40;2.83;;;;;;;;;;4977563;28;20320;-74
2022/09/21 01:34:59;;;;;;;3.50;2.50;;;;;;;;;;4992906;28;20275;-74
2022/09/21 01:37:57;;;;;;;3.47;2.40;;;;;;;;;;4988649;28;20274;-72
2022/09/21 01:40:39;;;;;;;3.40;2.10;;;;;;;;;;5011344;28;20224;-73
2022/09/21 01:43:08;;;;;;;2.23;2.00;;;;;;;;;;4985657;28;20220;-73
2022/09/21 01:45:36;;;;;;;4.67;2.50;;;;;;;;;;4959985;28;20224;-73
2022/09/21 01:48:04;;;;;;;5.93;2.50;;;;;;;;;;4978614;28;20271;-73
2022/09/21 01:50:43;;;;;;;3.10;2.27;;;;;;;;;;4995944;28;20224;-73
2022/09/21 01:53:30;;;;;;;4.13;2.53;;;;;;;;;;4994907;28;20228;-74
2022/09/21 01:56:03;;;;;;;3.33;2.17;;;;;;;;;;4984256;28;20233;-73
2022/09/21 01:58:38;;;;;;;2.97;2.23;;;;;;;;;;4997045;28;20225;-73
2022/09/21 02:01:04;;;;;;;5.07;2.80;;;;;;;;;;5007702;28;20575;-74
2022/09/21 02:03:34;;;;;;;2.90;2.17;;;;;;;;;;4975910;28;20231;-74
2022/09/21 02:06:00;;;;;;;2.90;2.07;;;;;;;;;;4992953;28;20279;-74
2022/09/21 02:08:31;;;;;;;2.97;1.93;;;;;;;;;;4976948;28;20212;-72
2022/09/21 02:11:06;;;;;;;4.10;1.90;;;;;;;;;;4990268;28;20720;-74
2022/09/21 02:13:35;;;;;;;3.00;2.10;;;;;;;;;;4977708;28;20290;-73
2022/09/21 02:16:06;;;;;;;2.80;2.00;;;;;;;;;;4994941;28;21197;-73
2022/09/21 02:18:55;;;;;;;2.23;2.03;;;;;;;;;;4992705;28;20703;-73
2022/09/21 02:21:33;;;;;;;2.77;1.97;;;;;;;;;;5008486;28;20235;-73
2022/09/21 02:24:04;;;;;;;3.30;2.10;;;;;;;;;;4980333;28;20224;-73
2022/09/21 02:26:35;;;;;;;2.20;1.60;;;;;;;;;;4992588;28;21410;-73
2022/09/21 02:29:32;;;;;;;2.23;1.80;;;;;;;;;;4977848;28;20248;-73
2022/09/21 02:32:05;;;;;;;2.20;2.00;;;;;;;;;;4997082;28;20276;-74
2022/09/21 02:34:37;;;;;;;2.10;1.90;;;;;;;;;;4991254;28;20237;-74
2022/09/21 02:37:16;;;;;;;2.30;2.10;;;;;;;;;;5011698;28;20965;-73
2022/09/21 02:40:08;;;;;;;2.10;2.00;;;;;;;;;;4974208;28;20311;-74
2022/09/21 02:42:38;;;;;;;2.70;1.90;;;;;;;;;;4985180;28;20307;-73
2022/09/21 02:45:08;;;;;;;1.90;1.80;;;;;;;;;;4993689;28;20391;-74
2022/09/21 02:47:52;;;;;;;2.00;1.73;;;;;;;;;;4993232;28;20240;-73
2022/09/21 02:50:24;;;;;;;2.63;2.07;;;;;;;;;;4992982;28;20220;-73
2022/09/21 02:52:52;;;;;;;2.10;1.90;;;;;;;;;;4945303;28;20261;-74
2022/09/21 02:55:17;;;;;;;3.10;2.40;;;;;;;;;;4978075;28;20239;-74
2022/09/21 02:57:46;;;;;;;3.20;2.13;;;;;;;;;;4999312;28;20224;-73
2022/09/21 03:00:12;;;;;;;2.83;2.00;;;;;;;;;;4978445;28;20315;-73
2022/09/21 03:02:46;;;;;;;2.47;1.87;;;;;;;;;;4978624;28;20837;-73
2022/09/21 03:05:12;;;;;;;2.77;1.90;;;;;;;;;;5003068;28;20218;-73
2022/09/21 03:07:43;;;;;;;2.97;2.23;;;;;;;;;;4979474;28;20216;-74
2022/09/21 03:10:08;;;;;;;3.43;2.20;;;;;;;;;;5011934;28;20236;-74
2022/09/21 03:12:39;;;;;;;2.37;2.00;;;;;;;;;;4965665;28;20228;-75
2022/09/21 03:15:05;;;;;;;3.30;2.20;;;;;;;;;;4980444;28;20431;-74
2022/09/21 03:17:30;;;;;;;3.93;2.40;;;;;;;;;;4989673;28;20268;-74
2022/09/21 03:19:56;;;;;;;2.27;1.83;;;;;;;;;;5012423;28;20228;-71
2022/09/21 03:22:25;;;;;;;4.67;2.30;;;;;;;;;;4996027;28;20224;-74
2022/09/21 03:24:50;;;;;;;3.13;1.97;;;;;;;;;;4976758;28;20363;-74
2022/09/21 03:27:21;;;;;;;2.53;2.03;;;;;;;;;;4998132;28;20706;-73
2022/09/21 03:29:47;;;;;;;2.40;2.03;;;;;;;;;;4996099;28;20247;-73
2022/09/21 03:32:15;;;;;;;3.10;1.90;;;;;;;;;;4977677;28;20739;-73
2022/09/21 03:34:43;;;;;;;4.63;2.33;;;;;;;;;;4978714;28;20313;-74
2022/09/21 03:37:11;;;;;;;2.00;1.90;;;;;;;;;;4994663;28;20607;-73
2022/09/21 03:39:36;;;;;;;2.30;2.20;;;;;;;;;;4981105;28;20247;-74
2022/09/21 03:42:03;;;;;;;2.60;2.40;;;;;;;;;;4994376;28;20235;-74
2022/09/21 03:44:30;;;;;;;2.47;2.27;;;;;;;;;;4961415;28;20751;-73
2022/09/21 03:46:58;;;;;;;2.83;2.03;;;;;;;;;;4979991;28;20231;-75
2022/09/21 03:49:29;;;;;;;3.73;2.30;;;;;;;;;;5010175;28;20221;-72
2022/09/21 03:51:58;;;;;;;4.30;1.77;;;;;;;;;;4994648;28;20248;-73
2022/09/21 03:54:24;;;;;;;2.97;2.60;;;;;;;;;;4965230;28;20229;-74
2022/09/21 03:56:50;;;;;;;3.23;2.43;;;;;;;;;;4992204;28;20258;-74
2022/09/21 03:59:19;;;;;;;3.70;3.07;;;;;;;;;;4960017;28;20225;-74
2022/09/21 04:01:45;;;;;;;4.23;2.97;;;;;;;;;;4979161;28;20328;-73
2022/09/21 04:04:12;;;;;;;3.10;2.63;;;;;;;;;;4977376;28;20233;-72
2022/09/21 04:06:40;;;;;;;3.90;2.60;;;;;;;;;;4993603;28;20278;-73
2022/09/21 04:09:08;;;;;;;3.60;2.80;;;;;;;;;;4997370;28;20235;-73
2022/09/21 04:11:37;;;;;;;2.67;2.40;;;;;;;;;;4975486;28;20315;-73
2022/09/21 04:14:06;;;;;;;2.97;2.50;;;;;;;;;;4992789;28;20232;-73
2022/09/21 04:16:34;;;;;;;3.30;2.47;;;;;;;;;;4999626;28;20224;-74
2022/09/21 04:19:00;;;;;;;2.73;2.50;;;;;;;;;;4978150;28;20221;-73
2022/09/21 04:21:28;;;;;;;5.83;2.70;;;;;;;;;;4963317;28;20751;-72
2022/09/21 04:23:54;;;;;;;3.33;2.43;;;;;;;;;;4989352;28;20275;-73
2022/09/21 04:26:27;;;;;;;2.40;2.20;;;;;;;;;;4980910;28;20233;-73
2022/09/21 04:28:55;;;;;;;2.70;2.23;;;;;;;;;;4984897;28;20225;-73
2022/09/21 04:31:21;;;;;;;3.20;2.40;;;;;;;;;;4964087;28;20276;-73
2022/09/21 04:33:48;;;;;;;2.40;2.17;;;;;;;;;;4983576;28;20681;-73
2022/09/21 04:36:14;;;;;;;3.47;2.37;;;;;;;;;;4977562;28;20736;-73
2022/09/21 04:38:42;;;;;;;6.10;2.27;;;;;;;;;;4978441;28;20233;-73
2022/09/21 04:41:10;;;;;;;3.50;2.40;;;;;;;;;;4977789;28;20221;-73
2022/09/21 04:43:38;;;;;;;2.23;2.03;;;;;;;;;;4995909;28;20231;-73
2022/09/21 04:46:07;;;;;;;2.03;1.70;;;;;;;;;;4980045;28;20247;-73
2022/09/21 04:48:36;;;;;;;3.50;2.27;;;;;;;;;;4978807;28;20308;-73
2022/09/21 04:51:02;;;;;;;3.87;2.23;;;;;;;;;;5005946;28;20297;-73
2022/09/21 04:53:28;;;;;;;5.03;2.47;;;;;;;;;;4996953;28;20228;-73
2022/09/21 04:55:55;;;;;;;2.77;2.20;;;;;;;;;;4994380;28;20225;-73
2022/09/21 04:58:22;;;;;;;3.10;2.17;;;;;;;;;;4978539;28;20291;-73
2022/09/21 05:00:54;;;;;;;2.70;2.03;;;;;;;;;;4987861;28;20315;-73
2022/09/21 05:03:22;;;;;;;1.83;1.73;;;;;;;;;;4979730;28;20593;-73
2022/09/21 05:05:51;;;;;;;2.10;2.00;;;;;;;;;;4980911;28;20224;-73
2022/09/21 05:10:01;;;;;;;2.80;1.97;;;;;;;;;;5005524;28;20227;-73
2022/09/21 05:11:05;;;;;;;2.20;2.00;;;;;;;;;;4995957;28;20271;-73
2022/09/21 05:13:35;;;;;;;3.27;2.03;;;;;;;;;;4996805;28;20644;-73
2022/09/21 05:16:01;;;;;;;3.83;2.00;;;;;;;;;;4958803;28;20294;-73
2022/09/21 05:18:28;;;;;;;3.73;2.30;;;;;;;;;;4991029;28;20244;-73
2022/09/21 05:21:00;;;;;;;2.63;2.13;;;;;;;;;;4959899;28;20322;-74
2022/09/21 05:23:35;;;;;;;3.47;2.20;;;;;;;;;;4981200;28;20224;-74
2022/09/21 05:26:01;;;;;;;2.50;2.27;;;;;;;;;;4995309;28;20702;-74
2022/09/21 05:28:26;;;;;;;2.57;2.30;;;;;;;;;;4997313;28;20226;-74
2022/09/21 05:30:58;;;;;;;1.97;1.87;;;;;;;;;;4977748;28;20319;-74
2022/09/21 05:33:29;;;;;;;2.20;2.00;;;;;;;;;;5010007;28;20693;-75
2022/09/21 05:36:10;;;;;;;2.07;1.87;;;;;;;;;;4985709;28;20237;-74
2022/09/21 05:38:40;;;;;;;2.03;1.93;;;;;;;;;;5009113;28;21440;-74
2022/09/21 05:41:08;;;;;;;2.77;1.80;;;;;;;;;;5007790;28;20687;-74
2022/09/21 05:43:34;;;;;;;4.90;3.87;;;;;;;;;;4978551;28;20248;-73
2022/09/21 05:46:25;;;;;;;3.67;2.23;;;;;;;;;;4992825;28;20220;-75
2022/09/21 05:48:56;;;;;;;2.60;2.40;;;;;;;;;;4979117;28;20228;-74
2022/09/21 05:51:33;;;;;;;2.60;2.40;;;;;;;;;;4973169;28;20223;-73
2022/09/21 05:54:02;;;;;;;4.70;3.33;;;;;;;;;;4977535;28;20318;-72
2022/09/21 05:56:59;;;;;;;4.57;3.60;;;;;;;;;;4988914;28;20278;-72
2022/09/21 05:59:46;;;;;;;3.70;3.40;;;;;;;;;;4977321;28;20601;-74
2022/09/21 06:02:49;;;;;;;3.87;3.10;;;;;;;;;;5004438;28;20224;-73
2022/09/21 06:05:16;;;;;;;3.00;2.80;;;;;;;;;;4984018;28;20216;-74
2022/09/21 06:07:47;;;;;;;3.67;2.70;;;;;;;;;;4995997;28;20228;-74
2022/09/21 06:10:13;;;;;;;3.90;3.60;;;;;;;;;;5002842;28;20228;-74
2022/09/21 06:12:39;;;;;;;4.60;4.00;;;;;;;;;;4960814;28;21281;-74
2022/09/21 06:15:06;;;;;;;5.33;4.80;;;;;;;;;;4955972;28;20236;-74
2022/09/21 06:17:32;;;;;;;6.50;4.37;;;;;;;;;;4994757;28;20227;-74
2022/09/21 06:20:01;;;;;;;3.80;3.50;;;;;;;;;;4960541;28;20225;-75
2022/09/21 06:22:32;;;;;;;6.07;5.57;;;;;;;;;;4974726;28;20224;-75
2022/09/21 06:24:57;;;;;;;4.00;3.70;;;;;;;;;;4971542;28;20232;-74
2022/09/21 06:27:23;;;;;;;6.20;3.80;;;;;;;;;;5004065;28;20225;-72
2022/09/21 06:29:48;;;;;;;7.13;6.43;;;;;;;;;;4961143;28;20279;-75
2022/09/21 06:32:14;;;;;;;6.77;4.97;;;;;;;;;;4961168;28;20221;-71
2022/09/21 06:34:39;;;;;;;5.53;5.03;;;;;;;;;;4994890;28;20615;-73
2022/09/21 06:37:05;;;;;;;5.13;3.90;;;;;;;;;;4960714;28;20240;-74
2022/09/21 06:39:32;;;;;;;5.10;4.13;;;;;;;;;;4981520;28;20209;-72
2022/09/21 06:42:00;;;;;;;5.07;4.60;;;;;;;;;;4961062;28;20221;-74
2022/09/21 06:44:28;;;;;;;4.10;3.70;;;;;;;;;;4991262;28;20307;-74
2022/09/21 06:46:56;;;;;;;5.63;3.10;;;;;;;;;;5008255;28;20225;-74
2022/09/21 06:49:27;;;;;;;3.63;2.30;;;;;;;;;;4992111;28;20217;-73
2022/09/21 06:51:55;;;;;;;3.77;2.47;;;;;;;;;;4992361;28;20220;-73
2022/09/21 06:54:23;;;;;;;4.63;2.60;;;;;;;;;;4945019;28;20565;-74
2022/09/21 06:56:49;;;;;;;4.30;2.67;;;;;;;;;;4981921;28;20706;-74
2022/09/21 06:59:14;;;;;;;2.60;2.37;;;;;;;;;;5002968;28;20313;-73
2022/09/21 07:01:57;;;;;;;4.03;2.73;;;;;;;;;;4982217;28;20276;-74
2022/09/21 07:04:27;;;;;;;6.80;6.10;;;;;;;;;;4994072;28;23001;-74
2022/09/21 07:06:58;;;;;;;25.43;23.33;;;;;;;;;;5000374;28;20747;-73
2022/09/21 07:09:24;;;;;;;25.93;23.53;;;;;;;;;;4988981;28;20232;-72
2022/09/21 07:11:50;;;;;;;15.60;14.30;;;;;;;;;;5008579;28;20233;-73
2022/09/21 07:14:15;;;;;;;5.30;4.90;;;;;;;;;;4980433;28;20231;-72
2022/09/21 07:16:41;;;;;;;4.50;4.10;;;;;;;;;;4977665;28;20227;-72
2022/09/21 07:19:08;;;;;;;3.70;3.00;;;;;;;;;;4993786;28;20228;-71
2022/09/21 07:21:33;;;;;;;3.17;2.90;;;;;;;;;;4987815;28;20315;-72
2022/09/21 07:23:59;;;;;;;4.43;3.20;;;;;;;;;;4991627;28;20694;-72
2022/09/21 07:26:24;;;;;;;5.60;3.20;;;;;;;;;;4974723;28;20216;-74
2022/09/21 07:28:50;;;;;;;5.00;3.17;;;;;;;;;;4977569;28;20247;-73
2022/09/21 07:31:17;;;;;;;3.70;3.40;;;;;;;;;;4991038;28;20224;-73
2022/09/21 07:33:45;;;;;;;3.93;3.30;;;;;;;;;;4997391;28;21189;-74
2022/09/21 07:36:11;;;;;;;3.87;3.33;;;;;;;;;;4994441;28;20236;-75
2022/09/21 07:38:43;;;;;;;5.03;3.20;;;;;;;;;;5008357;28;20963;-73
2022/09/21 07:41:12;;;;;;;4.10;3.40;;;;;;;;;;4980138;28;20270;-75
2022/09/21 07:43:39;;;;;;;5.40;3.67;;;;;;;;;;4967604;28;20672;-74
2022/09/21 07:46:05;;;;;;;4.53;3.30;;;;;;;;;;4976779;28;21324;-75
2022/09/21 07:48:33;;;;;;;6.10;3.83;;;;;;;;;;4998180;28;20278;-74
2022/09/21 07:51:04;;;;;;;8.33;3.70;;;;;;;;;;4982995;28;20256;-73
2022/09/21 07:53:40;;;;;;;8.20;3.90;;;;;;;;;;4997822;28;20228;-73
2022/09/21 07:56:09;;;;;;;4.30;3.43;;;;;;;;;;4964279;28;20244;-74
2022/09/21 08:01:41;;;;;;;4.87;3.57;;;;;;;;;;4981028;28;20236;-74
2022/09/21 08:04:09;;;;;;;5.90;3.70;;;;;;;;;;4968289;28;20290;-75
2022/09/21 08:06:38;;;;;;;6.37;3.80;;;;;;;;;;4979919;28;20698;-74
2022/09/21 08:09:08;;;;;;;7.63;3.40;;;;;;;;;;4967763;28;20279;-74
2022/09/21 08:11:36;;;;;;;7.03;3.40;;;;;;;;;;4979462;28;20719;-74
2022/09/21 08:14:01;;;;;;;3.37;2.90;;;;;;;;;;4975519;28;21093;-74
2022/09/21 08:16:30;;;;;;;4.27;2.87;;;;;;;;;;4995360;28;20499;-74
2022/09/21 08:18:55;;;;;;;4.77;2.97;;;;;;;;;;4976898;28;20718;-75
2022/09/21 08:21:21;;;;;;;5.77;2.67;;;;;;;;;;4991726;28;20220;-74
2022/09/21 08:23:50;;;;;;;5.97;2.80;;;;;;;;;;4993990;28;20237;-74
2022/09/21 08:26:18;;;;;;;8.80;3.00;;;;;;;;;;4996601;28;20221;-76
2022/09/21 08:28:47;;;;;;;4.83;2.50;;;;;;;;;;4980530;28;20220;-74
2022/09/21 08:31:18;;;;;;;5.63;2.13;;;;;;;;;;4995342;28;20252;-73
2022/09/21 08:33:44;;;;;;;5.33;2.23;;;;;;;;;;4961145;28;20232;-75
2022/09/21 08:36:09;;;;;;;7.00;2.53;;;;;;;;;;4963546;28;20217;-75
2022/09/21 08:38:36;;;;;;;5.17;2.37;;;;;;;;;;4982856;28;20229;-75
2022/09/21 08:41:08;;;;;;;4.47;2.17;;;;;;;;;;4964616;28;20240;-75
2022/09/21 08:43:40;;;;;;;4.40;1.90;;;;;;;;;;4981636;28;20299;-74
2022/09/21 08:46:08;;;;;;;5.10;2.03;;;;;;;;;;4990572;28;20324;-72
2022/09/21 08:48:36;;;;;;;4.07;1.70;;;;;;;;;;4963353;28;20557;-75
2022/09/21 08:51:07;;;;;;;4.73;1.60;;;;;;;;;;4997360;28;20221;-73
2022/09/21 08:53:34;;;;;;;5.63;1.60;;;;;;;;;;4996693;28;20255;-75
2022/09/21 08:56:02;;;;;;;4.23;1.53;;;;;;;;;;4982961;28;20229;-76
2022/09/21 08:58:32;;;;;;;4.77;1.43;;;;;;;;;;4963376;28;20690;-75
2022/09/21 09:01:18;;;;;;;4.30;1.73;;;;;;;;;;4994783;28;20223;-72
2022/09/21 09:03:47;;;;;;;8.47;1.80;;;;;;;;;;4994043;28;20323;-73
2022/09/21 09:06:47;;;;;;;3.43;1.37;;;;;;;;;;4993938;28;20232;-75
2022/09/21 09:09:19;;;;;;;4.53;1.40;;;;;;;;;;4939119;28;20762;-73
2022/09/21 09:12:02;;;;;;;3.10;1.20;;;;;;;;;;5009673;28;20221;-75
2022/09/21 09:14:37;;;;;;;4.20;1.70;;;;;;;;;;4995117;28;20593;-75
2022/09/21 09:17:18;;;;;;;4.97;1.30;;;;;;;;;;4977956;28;20236;-76
2022/09/21 09:19:44;;;;;;;4.95;1.70;;;;;;;;;;5004512;28;20685;-74
2022/09/21 09:22:15;;;;;;;4.22;1.42;;;;;;;;;;4998783;28;20290;-73
2022/09/21 09:24:44;;;;;;;3.33;1.50;;;;;;;;;;4978903;28;20229;-75
2022/09/21 09:27:15;;;;;;;2.27;1.20;;;;;;;;;;5004048;28;20224;-75
2022/09/21 09:29:44;;;;;;;7.80;1.50;;;;;;;;;;4996397;28;20259;-75
2022/09/21 09:32:17;;;;;;;2.95;1.35;;;;;;;;;;4993173;28;20227;-75
2022/09/21 09:34:56;;;;;;;6.53;1.50;;;;;;;;;;4975703;28;20241;-73
2022/09/21 09:37:29;;;;;;;4.90;1.63;;;;;;;;;;5009867;28;20333;-74
2022/09/21 09:39:58;;;;;;;4.30;1.30;;;;;;;;;;4981011;28;20225;-75
2022/09/21 09:42:35;;;;;;;4.03;1.40;;;;;;;;;;4959542;28;20220;-76
2022/09/21 09:45:32;;;;;;;2.35;1.10;;;;;;;;;;5009958;28;20224;-75
2022/09/21 09:48:18;;;;;;;3.25;1.00;;;;;;;;;;4997954;28;20224;-75
2022/09/21 09:50:45;;;;;;;3.95;1.48;;;;;;;;;;5009795;28;20229;-72
2022/09/21 09:53:19;;;;;;;4.55;1.08;;;;;;;;;;4976773;28;20223;-75
2022/09/21 09:55:52;;;;;;;2.75;1.20;;;;;;;;;;4972647;28;20239;-72
2022/09/21 09:58:21;;;;;;;4.03;1.33;;;;;;;;;;4975880;28;20217;-73
2022/09/21 10:00:51;;;;;;;2.17;0.90;;;;;;;;;;4996592;28;20622;-74
2022/09/21 10:03:24;;;;;;;4.15;1.10;;;;;;;;;;4959116;28;20682;-74
2022/09/21 10:05:53;;;;;;;4.43;1.40;;;;;;;;;;4991061;28;20221;-73
2022/09/21 10:08:38;;;;;;;2.58;0.93;;;;;;;;;;4958341;28;20239;-73
2022/09/21 10:11:03;;;;;;;2.20;1.10;;;;;;;;;;5007807;28;20224;-74
2022/09/21 10:13:29;;;;;;;3.53;1.02;;;;;;;;;;4989854;28;20247;-74
2022/09/21 10:16:03;;;;;;;6.00;1.00;;;;;;;;;;4978687;28;20229;-73
2022/09/21 10:18:31;;;;;;;2.55;1.05;;;;;;;;;;4962978;28;20252;-73
2022/09/21 10:21:04;;;;;;;3.28;1.20;;;;;;;;;;4978523;28;20678;-72
2022/09/21 10:23:30;;;;;;;4.90;1.23;;;;;;;;;;4972585;28;20618;-75
2022/09/21 10:26:12;;;;;;;2.58;1.10;;;;;;;;;;4972526;28;20217;-75
2022/09/21 10:28:37;;;;;;;3.88;1.50;;;;;;;;;;4980030;28;20224;-73
2022/09/21 10:31:10;;;;;;;4.80;1.23;;;;;;;;;;4961107;28;20263;-74
2022/09/21 10:33:55;;;;;;;3.92;1.40;;;;;;;;;;5011271;28;20224;-74
2022/09/21 10:36:30;;;;;;;1.60;0.80;;;;;;;;;;4976139;28;20232;-73
2022/09/21 10:39:19;;;;;;;2.47;1.05;;;;;;;;;;4977855;28;20693;-74
2022/09/21 10:41:58;;;;;;;2.67;1.00;;;;;;;;;;5008058;28;20224;-74
2022/09/21 10:44:37;;;;;;;1.52;0.90;;;;;;;;;;4995168;28;20604;-73
2022/09/21 10:47:37;;;;;;;2.03;0.80;;;;;;;;;;5007717;28;20231;-74
2022/09/21 10:50:29;;;;;;;2.45;1.00;;;;;;;;;;4990871;28;20284;-73
2022/09/21 10:53:00;;;;;;;2.17;1.05;;;;;;;;;;4987742;28;20690;-73
2022/09/21 10:55:27;;;;;;;5.28;1.30;;;;;;;;;;4964299;28;20228;-73
2022/09/21 10:57:57;;;;;;;2.17;0.88;;;;;;;;;;4961225;28;20221;-74
2022/09/21 11:00:25;;;;;;;3.38;0.98;;;;;;;;;;4976678;28;20616;-71
2022/09/21 11:02:51;;;;;;;2.42;0.98;;;;;;;;;;5008704;28;20290;-72
2022/09/21 11:05:20;;;;;;;4.30;0.65;;;;;;;;;;4995379;28;20695;-72
2022/09/21 11:07:52;;;;;;;1.88;0.80;;;;;;;;;;4971784;28;20256;-74
2022/09/21 11:10:38;;;;;;;2.50;0.80;;;;;;;;;;5008040;28;20608;-72
2022/09/21 11:13:31;;;;;;;2.83;0.98;;;;;;;;;;4958746;28;20668;-72
2022/09/21 11:16:15;;;;;;;0.90;0.68;;;;;;;;;;4994372;28;20240;-74
2022/09/21 11:18:57;;;;;;;2.35;0.70;;;;;;;;;;4997711;28;20227;-74
2022/09/21 11:21:30;;;;;;;3.47;0.95;;;;;;;;;;5011637;28;20244;-73
2022/09/21 11:23:58;;;;;;;1.42;0.70;;;;;;;;;;4994448;28;20220;-73
2022/09/21 11:26:27;;;;;;;2.95;1.00;;;;;;;;;;4979732;28;20307;-71
2022/09/21 11:29:01;;;;;;;2.42;0.85;;;;;;;;;;4994884;28;20682;-73
2022/09/21 11:31:29;;;;;;;2.13;0.80;;;;;;;;;;4959371;28;20328;-72
2022/09/21 11:34:25;;;;;;;4.30;0.90;;;;;;;;;;5010808;28;20220;-73
2022/09/21 11:36:59;;;;;;;2.35;0.85;;;;;;;;;;5009318;28;20236;-74
2022/09/21 11:39:24;;;;;;;3.17;0.75;;;;;;;;;;4978335;28;20212;-72
2022/09/21 11:42:28;;;;;;;1.58;0.80;;;;;;;;;;5011125;28;20299;-74
2022/09/21 11:44:56;;;;;;;1.10;0.45;;;;;;;;;;4910558;29;20655;-72
2022/09/21 11:47:21;;;;;;;1.05;0.63;;;;;;;;;;4913160;29;20617;-74
2022/09/21 11:50:14;;;;;;;1.55;0.50;;;;;;;;;;4945901;28;20221;-73
2022/09/21 11:52:40;;;;;;;2.78;0.70;;;;;;;;;;4981593;28;20217;-73
2022/09/21 11:55:22;;;;;;;1.30;0.60;;;;;;;;;;4995529;28;20399;-71
2022/09/21 11:57:47;;;;;;;1.42;0.63;;;;;;;;;;4983330;28;20216;-71
2022/09/21 12:00:17;;;;;;;3.30;1.00;;;;;;;;;;5006883;28;20758;-74
2022/09/21 12:03:22;;;;;;;1.23;0.80;;;;;;;;;;4969966;28;20232;-73
2022/09/21 12:06:03;;;;;;;2.67;0.52;;;;;;;;;;4989612;28;20220;-73
2022/09/21 12:08:48;;;;;;;0.90;0.43;;;;;;;;;;4993877;28;20223;-74
2022/09/21 12:11:24;;;;;;;1.40;0.70;;;;;;;;;;5008591;28;20591;-73
2022/09/21 12:13:57;;;;;;;2.28;0.73;;;;;;;;;;5007112;28;20371;-71
2022/09/21 12:16:39;;;;;;;1.13;0.60;;;;;;;;;;4992493;28;20225;-74
2022/09/21 12:19:26;;;;;;;3.00;0.85;;;;;;;;;;5009070;28;20332;-74
2022/09/21 12:21:59;;;;;;;1.27;0.60;;;;;;;;;;4995336;28;20252;-73
2022/09/21 12:24:33;;;;;;;1.73;0.80;;;;;;;;;;4976509;28;20571;-74
2022/09/21 12:27:13;;;;;;;1.45;0.80;;;;;;;;;;4979375;28;20224;-72
2022/09/21 12:29:42;;;;;;;1.08;0.60;;;;;;;;;;4991930;28;20231;-74
2022/09/21 12:32:28;;;;;;;2.25;0.57;;;;;;;;;;4992677;28;20238;-73
2022/09/21 12:34:58;;;;;;;1.10;0.60;;;;;;;;;;4979404;28;20228;-73
2022/09/21 12:37:46;;;;;;;1.65;0.60;;;;;;;;;;4992888;28;20304;-72
2022/09/21 12:40:26;;;;;;;0.50;0.50;;;;;;;;;;4995696;28;20216;-73
2022/09/21 12:43:06;;;;;;;2.38;0.77;;;;;;;;;;4986739;28;20232;-73
2022/09/21 12:45:33;;;;;;;0.88;0.50;;;;;;;;;;4996337;28;20220;-73
2022/09/21 12:48:18;;;;;;;1.58;0.70;;;;;;;;;;4976105;28;20232;-74
2022/09/21 12:51:05;;;;;;;1.83;1.02;;;;;;;;;;5009624;28;20243;-73
2022/09/21 12:53:32;;;;;;;0.80;0.47;;;;;;;;;;4996006;28;20762;-71
2022/09/21 12:56:22;;;;;;;5.25;1.42;;;;;;;;;;4995756;28;20616;-73
2022/09/21 12:58:59;;;;;;;0.77;0.50;;;;;;;;;;5009266;28;20299;-71
2022/09/21 13:01:38;;;;;;;1.38;0.70;;;;;;;;;;4980085;28;20309;-71
2022/09/21 13:04:30;;;;;;;2.10;0.60;;;;;;;;;;5009559;28;20703;-70
2022/09/21 13:07:28;;;;;;;2.28;0.60;;;;;;;;;;4984053;28;20646;-71
2022/09/21 13:09:59;;;;;;;0.98;0.43;;;;;;;;;;4996710;28;20599;-73
2022/09/21 13:12:32;;;;;;;1.15;0.60;;;;;;;;;;4996628;28;20256;-74
2022/09/21 13:15:03;;;;;;;1.90;0.70;;;;;;;;;;4977215;28;20243;-72
2022/09/21 13:17:31;;;;;;;3.15;0.90;;;;;;;;;;4991065;28;20221;-72
2022/09/21 13:20:05;;;;;;;1.85;0.70;;;;;;;;;;4993666;28;20279;-74
2022/09/21 13:22:34;;;;;;;2.53;0.70;;;;;;;;;;4978493;28;20231;-71
2022/09/21 13:25:23;;;;;;;1.75;0.80;;;;;;;;;;4979007;28;20221;-74
2022/09/21 13:27:59;;;;;;;2.10;0.80;;;;;;;;;;4978688;28;20261;-72
2022/09/21 13:30:31;;;;;;;2.50;0.88;;;;;;;;;;4991044;28;20713;-73
2022/09/21 13:33:02;;;;;;;1.60;0.63;;;;;;;;;;5009096;28;20311;-72
2022/09/21 13:35:46;;;;;;;1.48;0.70;;;;;;;;;;4973593;28;20253;-72
2022/09/21 13:38:32;;;;;;;2.53;0.55;;;;;;;;;;4992926;28;20239;-74
2022/09/21 13:41:19;;;;;;;3.53;0.77;;;;;;;;;;5010454;28;20226;-72
2022/09/21 13:44:00;;;;;;;2.08;0.73;;;;;;;;;;5004241;28;20232;-73
2022/09/21 13:46:34;;;;;;;2.38;0.80;;;;;;;;;;4978065;28;20220;-70
2022/09/21 13:49:10;;;;;;;2.92;0.70;;;;;;;;;;5009994;28;20251;-71
2022/09/21 13:51:59;;;;;;;1.13;0.52;;;;;;;;;;4993065;28;20583;-72
2022/09/21 13:54:34;;;;;;;1.77;0.90;;;;;;;;;;4980937;28;20227;-73
2022/09/21 13:57:36;;;;;;;0.95;0.68;;;;;;;;;;4975928;28;20216;-70
2022/09/21 14:00:07;;;;;;;1.90;0.70;;;;;;;;;;4961731;28;20307;-73
2022/09/21 14:02:48;;;;;;;1.35;0.80;;;;;;;;;;4992603;28;20671;-73
2022/09/21 14:05:34;;;;;;;1.35;0.70;;;;;;;;;;4986772;28;20204;-74
2022/09/21 14:08:15;;;;;;;0.93;0.50;;;;;;;;;;4996667;28;20232;-71
2022/09/21 14:10:54;;;;;;;1.35;0.60;;;;;;;;;;5009127;28;20236;-71
2022/09/21 14:13:24;;;;;;;5.00;0.80;;;;;;;;;;4995740;28;20217;-71
2022/09/21 14:15:52;;;;;;;1.08;0.75;;;;;;;;;;4997136;28;20315;-72
2022/09/21 14:18:20;;;;;;;2.05;0.60;;;;;;;;;;4960028;28;20217;-71
2022/09/21 14:21:17;;;;;;;1.33;0.50;;;;;;;;;;4995089;28;20236;-73
2022/09/21 14:24:05;;;;;;;1.92;0.80;;;;;;;;;;4996828;28;20750;-73
2022/09/21 14:26:39;;;;;;;1.05;0.82;;;;;;;;;;4994469;28;20220;-74
2022/09/21 14:29:17;;;;;;;1.20;0.60;;;;;;;;;;4996350;28;20663;-74
2022/09/21 14:31:42;;;;;;;0.57;0.47;;;;;;;;;;5006549;28;20241;-72
2022/09/21 14:34:13;;;;;;;0.73;0.50;;;;;;;;;;4959163;28;20233;-72
2022/09/21 14:36:42;;;;;;;1.65;0.40;;;;;;;;;;4981903;28;20278;-75
2022/09/21 14:39:37;;;;;;;2.50;0.90;;;;;;;;;;4997545;28;20270;-73
2022/09/21 14:42:14;;;;;;;1.00;0.70;;;;;;;;;;4982435;28;20243;-73
2022/09/21 14:44:42;;;;;;;2.42;0.70;;;;;;;;;;4986436;28;20227;-73
2022/09/21 14:47:15;;;;;;;2.75;0.80;;;;;;;;;;4998816;28;20304;-72
2022/09/21 14:49:49;;;;;;;1.60;0.85;;;;;;;;;;4985643;28;20232;-71
2022/09/21 14:52:41;;;;;;;0.82;0.75;;;;;;;;;;4995439;28;20223;-72
2022/09/21 14:55:38;;;;;;;2.58;2.38;;;;;;;;;;4998956;28;20714;-73
2022/09/21 14:58:24;;;;;;;1.77;0.70;;;;;;;;;;4982866;28;20217;-74
2022/09/21 15:00:52;;;;;;;1.55;0.65;;;;;;;;;;5010027;28;20228;-71
2022/09/21 15:03:47;;;;;;;0.65;0.50;;;;;;;;;;4979082;28;20236;-72
2022/09/21 15:12:55;;;;;;;1.05;0.47;;;;;;;;;;5008501;28;20760;-73
2022/09/21 15:15:46;;;;;;;0.90;0.55;;;;;;;;;;5006527;28;20225;-75
2022/09/21 15:18:19;;;;;;;2.28;0.60;;;;;;;;;;5010883;28;20216;-73
2022/09/21 15:21:04;;;;;;;2.35;0.60;;;;;;;;;;4980435;28;20228;-74
2022/09/21 15:23:38;;;;;;;0.65;0.47;;;;;;;;;;4984214;28;20221;-74
2022/09/21 15:26:18;;;;;;;0.80;0.60;;;;;;;;;;4971462;28;20282;-73
2022/09/21 15:28:48;;;;;;;0.77;0.45;;;;;;;;;;4979215;28;20706;-72